createdAt,value
2018-12-04T00:00:33.823Z,79.74
2018-12-04T00:01:34.519Z,78.59
2018-12-04T00:02:34.938Z,78.5
2018-12-04T00:03:36.190Z,79.07
2018-12-04T00:04:36.166Z,78.41
2018-12-04T00:05:36.874Z,78.03
2018-12-04T00:06:37.569Z,78.98
2018-12-04T00:07:38.125Z,78.12
2018-12-04T00:08:38.821Z,77.74
2018-12-04T00:09:39.965Z,76.59
2018-12-04T00:10:40.939Z,76.79
2018-12-04T00:11:41.357Z,76.4
2018-12-04T00:12:42.060Z,76.31
2018-12-04T00:13:43.199Z,77.26
2018-12-04T00:14:44.628Z,76.98
2018-12-04T00:15:45.046Z,76.88
2018-12-04T00:16:46.025Z,77.64
2018-12-04T00:17:47.429Z,77.74
2018-12-04T00:18:47.403Z,76.88
2018-12-04T00:19:48.418Z,76.79
2018-12-04T00:20:49.117Z,76.88
2018-12-04T00:21:49.849Z,77.07
2018-12-04T00:22:50.267Z,77.07
2018-12-04T00:23:51.243Z,76.98
2018-12-04T00:24:51.384Z,77.83
2018-12-04T00:25:52.527Z,77.83
2018-12-04T00:26:53.952Z,76.12
2018-12-04T00:27:54.355Z,76.21
2018-12-04T00:28:55.772Z,75.64
2018-12-04T00:29:56.474Z,75.93
2018-12-04T00:30:57.169Z,76.69
2018-12-04T00:31:58.145Z,76.31
2018-12-04T00:32:58.843Z,75.64
2018-12-04T00:33:58.817Z,75.84
2018-12-04T00:34:59.513Z,75.55
2018-12-04T00:35:59.659Z,74.79
2018-12-04T00:37:00.378Z,74.88
2018-12-04T00:38:01.235Z,75.45
2018-12-04T00:39:03.162Z,75.45
2018-12-04T00:40:03.865Z,75.84
2018-12-04T00:41:04.562Z,76.5
2018-12-04T00:42:04.991Z,76.5
2018-12-04T00:43:05.693Z,77.07
2018-12-04T00:44:06.835Z,75.55
2018-12-04T00:45:07.532Z,75.16
2018-12-04T00:46:08.232Z,75.16
2018-12-04T00:47:08.369Z,75.45
2018-12-04T00:48:08.960Z,75.64
2018-12-04T00:49:09.939Z,74.6
2018-12-04T00:50:10.914Z,75.16
2018-12-04T00:51:11.611Z,75.36
2018-12-04T00:52:12.864Z,75.64
2018-12-04T00:53:13.283Z,76.12
2018-12-04T00:54:14.427Z,76.69
2018-12-04T00:55:15.677Z,75.74
2018-12-04T00:56:16.097Z,75.45
2018-12-04T00:57:17.525Z,75.16
2018-12-04T00:58:18.396Z,75.45
2018-12-04T00:59:19.818Z,75.36
2018-12-04T01:00:20.515Z,75.74
2018-12-04T01:01:21.493Z,76.5
2018-12-04T01:02:22.190Z,75.93
2018-12-04T01:03:22.892Z,76.03
2018-12-04T01:04:23.312Z,75.93
2018-12-04T01:05:24.453Z,76.03
2018-12-04T01:06:24.875Z,76.79
2018-12-04T01:07:25.575Z,75.84
2018-12-04T01:08:26.123Z,75.16
2018-12-04T01:09:26.540Z,74.79
2018-12-04T01:10:27.680Z,75.36
2018-12-04T01:11:28.821Z,75.74
2018-12-04T01:12:29.518Z,75.45
2018-12-04T01:13:30.215Z,75.16
2018-12-04T01:14:30.915Z,76.03
2018-12-04T01:15:31.609Z,75.84
2018-12-04T01:16:32.746Z,75.84
2018-12-04T01:17:33.880Z,75.36
2018-12-04T01:18:34.713Z,75.26
2018-12-04T01:19:35.951Z,75.16
2018-12-04T01:20:36.360Z,75.93
2018-12-04T01:21:37.884Z,75.84
2018-12-04T01:22:37.850Z,76.03
2018-12-04T01:23:38.544Z,75.84
2018-12-04T01:24:39.230Z,76.21
2018-12-04T01:25:40.194Z,76.31
2018-12-04T01:26:40.325Z,75.64
2018-12-04T01:27:40.731Z,75.45
2018-12-04T01:28:41.587Z,75.55
2018-12-04T01:29:42.277Z,75.36
2018-12-04T01:30:43.688Z,74.79
2018-12-04T01:31:44.656Z,74.6
2018-12-04T01:32:45.336Z,75.26
2018-12-04T01:33:46.023Z,74.31
2018-12-04T01:34:47.710Z,74.12
2018-12-04T01:35:48.394Z,74.12
2018-12-04T01:36:50.400Z,74.02
2018-12-04T01:37:49.811Z,74.12
2018-12-04T01:38:50.904Z,74.02
2018-12-04T01:39:52.319Z,74.02
2018-12-04T01:40:52.555Z,74.02
2018-12-04T01:41:52.687Z,74.79
2018-12-04T01:42:53.816Z,75.26
2018-12-04T01:43:54.501Z,75.45
2018-12-04T01:44:54.909Z,75.93
2018-12-04T01:45:55.326Z,75.84
2018-12-04T01:46:57.009Z,76.03
2018-12-04T01:47:57.693Z,76.79
2018-12-04T01:48:58.227Z,76.88
2018-12-04T01:49:58.953Z,76.4
2018-12-04T01:50:59.676Z,76.21
2018-12-04T01:52:00.084Z,76.5
2018-12-04T01:53:01.495Z,76.03
2018-12-04T01:54:02.179Z,75.74
2018-12-04T01:55:02.585Z,75.93
2018-12-04T01:56:03.271Z,75.93
2018-12-04T01:57:04.402Z,75.93
2018-12-04T01:58:05.643Z,76.21
2018-12-04T01:59:05.735Z,75.74
2018-12-04T02:00:07.144Z,76.03
2018-12-04T02:01:07.562Z,76.03
2018-12-04T02:02:07.971Z,74.69
2018-12-04T02:03:08.380Z,74.69
2018-12-04T02:04:09.903Z,74.12
2018-12-04T02:05:10.314Z,74.69
2018-12-04T02:06:10.723Z,74.31
2018-12-04T02:07:11.135Z,74.12
2018-12-04T02:08:11.543Z,74.16
2018-12-04T02:09:12.658Z,74.79
2018-12-04T02:10:13.932Z,74.79
2018-12-04T02:11:14.627Z,74.88
2018-12-04T02:12:15.361Z,74.88
2018-12-04T02:13:15.603Z,75.07
2018-12-04T02:14:16.013Z,75.16
2018-12-04T02:15:16.699Z,75.74
2018-12-04T02:16:17.385Z,75.26
2018-12-04T02:17:19.073Z,75.55
2018-12-04T02:18:19.480Z,75.36
2018-12-04T02:19:20.578Z,75.26
2018-12-04T02:20:21.264Z,75.26
2018-12-04T02:21:21.427Z,75.45
2018-12-04T02:22:22.115Z,75.11
2018-12-04T02:23:23.077Z,75.84
2018-12-04T02:24:23.762Z,75.96
2018-12-04T02:25:24.447Z,75.84
2018-12-04T02:26:25.136Z,75.64
2018-12-04T02:27:26.099Z,75.84
2018-12-04T02:28:26.506Z,75.93
2018-12-04T02:29:27.605Z,76.31
2018-12-04T02:30:28.124Z,76.12
2018-12-04T02:31:28.367Z,76.31
2018-12-04T02:32:28.607Z,76.79
2018-12-04T02:33:29.583Z,77.74
2018-12-04T02:34:30.268Z,78.03
2018-12-04T02:35:30.962Z,78.31
2018-12-04T02:36:31.650Z,78.69
2018-12-04T02:37:33.061Z,78.98
2018-12-04T02:38:33.306Z,79.55
2018-12-04T02:39:33.865Z,80.02
2018-12-04T02:40:34.558Z,80.98
2018-12-04T02:41:35.797Z,81.55
2018-12-04T02:42:36.767Z,82.31
2018-12-04T02:43:37.733Z,83.36
2018-12-04T02:44:38.416Z,83.74
2018-12-04T02:45:38.828Z,83.65
2018-12-04T02:46:39.790Z,84.6
2018-12-04T02:47:40.198Z,84.41
2018-12-04T02:48:40.906Z,84.98
2018-12-04T02:49:41.305Z,85.55
2018-12-04T02:50:42.271Z,86.27
2018-12-04T02:51:42.953Z,85.99
2018-12-04T02:52:43.640Z,87.13
2018-12-04T02:53:44.605Z,87.41
2018-12-04T02:54:44.855Z,86.75
2018-12-04T02:55:46.263Z,87.89
2018-12-04T02:56:46.514Z,87.6
2018-12-04T02:57:47.936Z,87.98
2018-12-04T02:58:48.346Z,87.7
2018-12-04T02:59:48.759Z,88.56
2018-12-04T03:00:49.439Z,88.37
2018-12-04T03:01:50.689Z,88.75
2018-12-04T03:02:51.103Z,88.37
2018-12-04T03:03:52.344Z,88.56
2018-12-04T03:04:52.308Z,89.41
2018-12-04T03:05:53.038Z,89.51
2018-12-04T03:06:54.180Z,89.89
2018-12-04T03:07:55.161Z,89.89
2018-12-04T03:08:55.861Z,90.65
2018-12-04T03:09:57.292Z,90.46
2018-12-04T03:10:58.256Z,89.7
2018-12-04T03:11:59.520Z,89.79
2018-12-04T03:13:00.479Z,89.98
2018-12-04T03:14:01.223Z,90.27
2018-12-04T03:15:01.460Z,90.36
2018-12-04T03:16:02.421Z,90.65
2018-12-04T03:17:02.661Z,89.89
2018-12-04T03:18:03.630Z,89.61
2018-12-04T03:19:04.325Z,89.41
2018-12-04T03:20:04.551Z,89.22
2018-12-04T03:21:04.962Z,88.27
2018-12-04T03:22:05.929Z,87.79
2018-12-04T03:23:06.625Z,86.55
2018-12-04T03:24:07.589Z,86.46
2018-12-04T03:25:09.385Z,86.27
2018-12-04T03:26:09.351Z,86.46
2018-12-04T03:27:10.311Z,86.08
2018-12-04T03:28:11.835Z,86.08
2018-12-04T03:29:12.075Z,86.46
2018-12-04T03:30:13.204Z,85.99
2018-12-04T03:31:14.289Z,85.99
2018-12-04T03:32:15.375Z,86.51
2018-12-04T03:33:15.642Z,86.22
2018-12-04T03:34:15.915Z,86.65
2018-12-04T03:35:17.320Z,86.55
2018-12-04T03:36:17.289Z,86.18
2018-12-04T03:37:18.306Z,86.75
2018-12-04T03:38:18.994Z,86.65
2018-12-04T03:39:19.518Z,86.08
2018-12-04T03:40:20.350Z,86.18
2018-12-04T03:41:21.321Z,85.99
2018-12-04T03:42:22.019Z,86.18
2018-12-04T03:43:22.982Z,86.75
2018-12-04T03:44:23.699Z,86.75
2018-12-04T03:45:23.948Z,86.36
2018-12-04T03:46:24.654Z,86.18
2018-12-04T03:47:26.057Z,86.18
2018-12-04T03:48:26.192Z,86.55
2018-12-04T03:49:27.156Z,86.55
2018-12-04T03:50:28.597Z,87.23
2018-12-04T03:51:29.571Z,86.65
2018-12-04T03:52:31.177Z,87.32
2018-12-04T03:53:32.140Z,87.32
2018-12-04T03:54:33.390Z,88.46
2018-12-04T03:55:35.132Z,88.93
2018-12-04T03:56:35.836Z,89.22
2018-12-04T03:57:36.524Z,89.61
2018-12-04T03:58:37.212Z,89.41
2018-12-04T03:59:38.283Z,89.98
2018-12-04T04:00:38.952Z,89.51
2018-12-04T04:01:39.124Z,88.93
2018-12-04T04:02:39.536Z,89.32
2018-12-04T04:03:40.062Z,89.7
2018-12-04T04:04:41.087Z,89.79
2018-12-04T04:05:41.774Z,89.7
2018-12-04T04:06:42.920Z,89.7
2018-12-04T04:07:43.892Z,89.79
2018-12-04T04:08:44.581Z,89.51
2018-12-04T04:09:45.838Z,89.41
2018-12-04T04:10:46.727Z,88.84
2018-12-04T04:11:46.857Z,88.27
2018-12-04T04:12:47.832Z,88.56
2018-12-04T04:13:48.272Z,88.84
2018-12-04T04:14:49.680Z,87.98
2018-12-04T04:15:50.089Z,88.46
2018-12-04T04:16:50.833Z,88.18
2018-12-04T04:17:51.794Z,87.98
2018-12-04T04:18:52.481Z,87.6
2018-12-04T04:19:53.619Z,87.03
2018-12-04T04:20:54.462Z,87.27
2018-12-04T04:21:55.152Z,87.37
2018-12-04T04:22:56.399Z,86.9
2018-12-04T04:23:56.653Z,86.55
2018-12-04T04:24:57.620Z,86.18
2018-12-04T04:25:58.862Z,84.94
2018-12-04T04:26:59.829Z,84.46
2018-12-04T04:27:59.795Z,84.08
2018-12-04T04:29:00.484Z,83.61
2018-12-04T04:30:01.733Z,84.17
2018-12-04T04:31:01.930Z,83.98
2018-12-04T04:32:02.637Z,84.08
2018-12-04T04:33:03.319Z,84.36
2018-12-04T04:34:04.842Z,83.03
2018-12-04T04:35:05.805Z,83.8
2018-12-04T04:36:06.213Z,83.8
2018-12-04T04:37:07.456Z,83.7
2018-12-04T04:38:07.983Z,84.27
2018-12-04T04:39:08.392Z,83.7
2018-12-04T04:40:09.386Z,83.41
2018-12-04T04:41:10.046Z,83.32
2018-12-04T04:42:11.012Z,83.51
2018-12-04T04:43:12.378Z,83.51
2018-12-04T04:44:12.063Z,83.41
2018-12-04T04:45:12.749Z,82.84
2018-12-04T04:46:14.437Z,83.51
2018-12-04T04:47:14.547Z,83.61
2018-12-04T04:48:14.673Z,83.7
2018-12-04T04:49:15.403Z,83.61
2018-12-04T04:50:16.659Z,84.08
2018-12-04T04:51:17.060Z,84.84
2018-12-04T04:52:17.484Z,84.65
2018-12-04T04:53:18.722Z,84.65
2018-12-04T04:54:18.975Z,85.03
2018-12-04T04:55:19.222Z,85.13
2018-12-04T04:56:19.766Z,85.41
2018-12-04T04:57:20.562Z,84.94
2018-12-04T04:58:21.356Z,85.6
2018-12-04T04:59:22.044Z,85.51
2018-12-04T05:00:23.061Z,86.36
2018-12-04T05:01:24.169Z,86.18
2018-12-04T05:02:24.144Z,86.65
2018-12-04T05:03:25.556Z,87.03
2018-12-04T05:04:26.523Z,86.84
2018-12-04T05:05:26.941Z,87.32
2018-12-04T05:06:27.636Z,87.37
2018-12-04T05:07:28.319Z,88.08
2018-12-04T05:08:29.612Z,88.13
2018-12-04T05:09:29.313Z,88.7
2018-12-04T05:10:30.007Z,88.89
2018-12-04T05:11:30.391Z,88.89
2018-12-04T05:12:31.076Z,89.37
2018-12-04T05:13:31.597Z,89.56
2018-12-04T05:14:31.555Z,89.94
2018-12-04T05:15:32.238Z,89.75
2018-12-04T05:16:33.309Z,90.13
2018-12-04T05:17:33.557Z,90.7
2018-12-04T05:18:34.272Z,91.65
2018-12-04T05:19:34.544Z,92.22
2018-12-04T05:20:34.950Z,92.51
2018-12-04T05:21:35.904Z,92.99
2018-12-04T05:22:36.592Z,92.7
2018-12-04T05:23:37.278Z,93.65
2018-12-04T05:24:38.409Z,93.65
2018-12-04T05:25:38.819Z,94.13
2018-12-04T05:26:39.776Z,94.22
2018-12-04T05:27:40.735Z,94.7
2018-12-04T05:28:41.429Z,94.89
2018-12-04T05:29:42.423Z,95.6
2018-12-04T05:30:43.390Z,95.98
2018-12-04T05:31:43.867Z,96.17
2018-12-04T05:32:45.317Z,96.55
2018-12-04T05:33:46.448Z,96.74
2018-12-04T05:34:47.574Z,96.46
2018-12-04T05:35:48.702Z,96.74
2018-12-04T05:36:49.381Z,96.36
2018-12-04T05:37:49.899Z,96.94
2018-12-04T05:38:50.029Z,96.94
2018-12-04T05:39:51.269Z,97.31
2018-12-04T05:40:51.955Z,97.5
2018-12-04T05:41:52.068Z,97.69
2018-12-04T05:42:52.751Z,97.79
2018-12-04T05:43:53.435Z,98.36
2018-12-04T05:44:54.118Z,99.02
2018-12-04T05:45:55.251Z,99.31
2018-12-04T05:46:55.935Z,99.6
2018-12-04T05:47:56.896Z,99.79
2018-12-04T05:48:57.583Z,99.99
2018-12-04T05:49:58.992Z,99.99
2018-12-04T05:50:59.329Z,99.99
2018-12-04T05:52:00.140Z,99.99
2018-12-04T05:53:00.827Z,99.99
2018-12-04T05:54:01.512Z,99.99
2018-12-04T05:55:03.038Z,99.99
2018-12-04T05:56:03.441Z,99.99
2018-12-04T05:57:04.124Z,99.99
2018-12-04T05:58:04.364Z,99.99
2018-12-04T05:59:04.603Z,99.99
2018-12-04T06:00:05.007Z,99.99
2018-12-04T06:01:05.692Z,99.99
2018-12-04T06:02:06.240Z,99.99
2018-12-04T06:03:07.368Z,99.99
2018-12-04T06:04:08.101Z,99.99
2018-12-04T06:05:08.505Z,99.99
2018-12-04T06:06:09.188Z,99.99
2018-12-04T06:07:09.595Z,99.99
2018-12-04T06:08:10.553Z,99.99
2018-12-04T06:09:11.234Z,99.99
2018-12-04T06:10:11.639Z,99.99
2018-12-04T06:11:12.050Z,99.99
2018-12-04T06:12:12.860Z,99.99
2018-12-04T06:13:13.097Z,99.99
2018-12-04T06:14:13.342Z,99.99
2018-12-04T06:15:14.749Z,99.99
2018-12-04T06:16:15.722Z,99.99
2018-12-04T06:17:16.165Z,99.99
2018-12-04T06:18:16.574Z,99.99
2018-12-04T06:19:17.262Z,99.99
2018-12-04T06:20:18.391Z,99.99
2018-12-04T06:21:19.354Z,99.99
2018-12-04T06:22:20.446Z,99.99
2018-12-04T06:23:21.404Z,99.99
2018-12-04T06:24:21.939Z,99.99
2018-12-04T06:25:22.901Z,99.99
2018-12-04T06:26:23.139Z,99.99
2018-12-04T06:27:24.268Z,99.99
2018-12-04T06:28:25.231Z,99.99
2018-12-04T06:29:25.915Z,99.99
2018-12-04T06:30:27.159Z,99.99
2018-12-04T06:31:27.569Z,99.99
2018-12-04T06:32:28.387Z,99.99
2018-12-04T06:33:28.792Z,99.99
2018-12-04T06:34:29.759Z,99.99
2018-12-04T06:35:30.208Z,99.99
2018-12-04T06:36:30.616Z,99.99
2018-12-04T06:37:31.022Z,99.99
2018-12-04T06:38:31.986Z,99.99
2018-12-04T06:39:32.145Z,99.99
2018-12-04T06:40:33.832Z,99.99
2018-12-04T06:41:33.959Z,99.99
2018-12-04T06:42:34.491Z,99.99
2018-12-04T06:43:34.899Z,99.99
2018-12-04T06:44:36.329Z,99.99
2018-12-04T06:45:37.295Z,99.99
2018-12-04T06:46:37.699Z,99.99
2018-12-04T06:47:38.397Z,99.99
2018-12-04T06:48:39.088Z,99.99
2018-12-04T06:49:39.497Z,99.99
2018-12-04T06:50:40.737Z,99.99
2018-12-04T06:51:41.146Z,99.99
2018-12-04T06:52:41.954Z,99.99
2018-12-04T06:53:43.088Z,99.99
2018-12-04T06:54:43.767Z,99.99
2018-12-04T06:55:44.452Z,99.99
2018-12-04T06:56:44.857Z,99.99
2018-12-04T06:57:46.024Z,99.99
2018-12-04T06:58:46.984Z,99.99
2018-12-04T06:59:48.115Z,99.99
2018-12-04T07:00:49.078Z,99.99
2018-12-04T07:01:49.768Z,99.99
2018-12-04T07:02:50.604Z,99.99
2018-12-04T07:03:51.441Z,99.99
2018-12-04T07:04:52.177Z,99.99
2018-12-04T07:05:54.517Z,99.99
2018-12-04T07:06:55.102Z,99.99
2018-12-04T07:07:58.077Z,99.99
2018-12-04T07:08:56.652Z,99.99
2018-12-04T07:09:57.615Z,99.99
2018-12-04T07:10:58.301Z,99.99
2018-12-04T07:12:03.601Z,99.99
2018-12-04T07:13:04.998Z,99.99
2018-12-04T07:14:05.692Z,99.99
2018-12-04T07:15:07.100Z,99.99
2018-12-04T07:16:07.835Z,99.99
2018-12-04T07:17:09.847Z,99.99
2018-12-04T07:18:09.059Z,99.99
2018-12-04T07:19:09.023Z,99.99
2018-12-04T07:20:09.705Z,99.99
2018-12-04T07:21:13.740Z,99.99
2018-12-04T07:21:23.529Z,99.99
2018-12-04T07:22:26.372Z,99.99
2018-12-04T07:23:24.744Z,99.99
2018-12-04T07:24:25.061Z,99.99
2018-12-04T07:25:25.468Z,99.99
2018-12-04T07:26:26.596Z,99.99
2018-12-04T07:27:27.282Z,99.99
2018-12-04T07:28:28.247Z,99.99
2018-12-04T07:29:28.949Z,99.99
2018-12-04T07:30:28.913Z,99.99
2018-12-04T07:31:30.322Z,99.99
2018-12-04T07:32:42.914Z,99.99
2018-12-04T07:33:43.745Z,99.99
2018-12-04T07:34:47.320Z,99.99
2018-12-04T07:35:47.360Z,99.99
2018-12-04T07:36:51.358Z,99.99
2018-12-04T07:37:49.817Z,99.99
2018-12-04T07:38:50.161Z,99.99
2018-12-04T07:39:50.847Z,99.99
2018-12-04T07:40:51.295Z,99.99
2018-12-04T07:41:52.839Z,99.99
2018-12-04T07:42:57.064Z,99.99
2018-12-04T07:43:09.437Z,99.99
2018-12-04T07:43:22.623Z,99.99
2018-12-04T07:43:32.719Z,99.99
2018-12-04T07:44:32.587Z,99.99
2018-12-04T07:45:33.549Z,99.99
2018-12-04T07:46:33.955Z,99.99
2018-12-04T07:47:35.402Z,99.99
2018-12-04T07:48:36.947Z,99.99
2018-12-04T07:49:40.405Z,99.99
2018-12-04T07:49:50.546Z,99.99
2018-12-04T07:50:52.790Z,99.99
2018-12-04T07:51:02.836Z,99.99
2018-12-04T07:52:06.913Z,99.99
2018-12-04T07:53:05.781Z,99.99
2018-12-04T07:54:06.022Z,99.99
2018-12-04T07:55:06.707Z,99.99
2018-12-04T07:56:07.846Z,99.99
2018-12-04T07:57:11.686Z,99.99
2018-12-04T07:57:23.316Z,99.99
2018-12-04T07:57:33.179Z,99.99
2018-12-04T07:58:33.559Z,99.99
2018-12-04T07:59:34.519Z,99.99
2018-12-04T08:00:38.817Z,99.99
2018-12-04T08:00:49.594Z,99.99
2018-12-04T08:01:51.694Z,99.99
2018-12-04T08:02:02.149Z,99.99
2018-12-04T08:03:00.904Z,99.99
2018-12-04T08:04:04.819Z,99.99
2018-12-04T08:04:14.361Z,99.99
2018-12-04T08:05:18.339Z,99.99
2018-12-04T08:05:27.398Z,99.99
2018-12-04T08:06:27.946Z,99.99
2018-12-04T08:07:28.938Z,99.99
2018-12-04T08:08:31.778Z,99.99
2018-12-04T08:09:34.482Z,99.99
2018-12-04T08:09:43.453Z,99.99
2018-12-04T08:10:46.323Z,99.99
2018-12-04T08:10:56.063Z,99.99
2018-12-04T08:11:56.167Z,99.99
2018-12-04T08:12:56.850Z,99.99
2018-12-04T08:13:57.540Z,99.99
2018-12-04T08:14:57.944Z,99.99
2018-12-04T08:15:58.350Z,99.99
2018-12-04T08:16:58.526Z,99.99
2018-12-04T08:17:59.213Z,99.99
2018-12-04T08:18:59.893Z,99.99
2018-12-04T08:20:00.581Z,99.99
2018-12-04T08:21:01.274Z,99.99
2018-12-04T08:22:02.577Z,99.99
2018-12-04T08:23:02.955Z,99.99
2018-12-04T08:24:03.329Z,99.99
2018-12-04T08:25:04.085Z,99.99
2018-12-04T08:26:04.052Z,99.99
2018-12-04T08:27:05.460Z,99.99
2018-12-04T08:28:05.424Z,99.99
2018-12-04T08:29:05.849Z,99.99
2018-12-04T08:30:06.259Z,99.99
2018-12-04T08:31:08.560Z,99.99
2018-12-04T08:32:08.383Z,99.99
2018-12-04T08:33:10.280Z,99.99
2018-12-04T08:34:10.244Z,99.99
2018-12-04T08:35:13.000Z,99.99
2018-12-04T08:36:12.380Z,99.99
2018-12-04T08:37:13.797Z,99.99
2018-12-04T08:38:14.041Z,99.99
2018-12-04T08:39:14.732Z,99.99
2018-12-04T08:40:15.865Z,99.99
2018-12-04T08:41:16.601Z,99.99
2018-12-04T08:42:17.418Z,99.99
2018-12-04T08:43:18.110Z,99.99
2018-12-04T08:44:19.243Z,99.99
2018-12-04T08:45:20.372Z,99.99
2018-12-04T08:46:21.339Z,99.99
2018-12-04T08:47:21.748Z,99.99
2018-12-04T08:48:22.438Z,99.99
2018-12-04T08:49:22.402Z,99.99
2018-12-04T08:50:23.366Z,99.99
2018-12-04T08:51:24.330Z,99.99
2018-12-04T08:52:25.259Z,99.99
2018-12-04T08:53:26.500Z,99.99
2018-12-04T08:54:26.908Z,99.99
2018-12-04T08:55:28.599Z,99.99
2018-12-04T08:56:30.908Z,99.99
2018-12-04T08:57:31.044Z,99.99
2018-12-04T08:58:32.010Z,99.99
2018-12-04T08:59:32.698Z,99.99
2018-12-04T09:00:33.384Z,99.99
2018-12-04T09:01:34.070Z,99.99
2018-12-04T09:02:34.722Z,99.99
2018-12-04T09:03:35.409Z,99.99
2018-12-04T09:04:35.818Z,99.99
2018-12-04T09:05:39.441Z,99.99
2018-12-04T09:05:50.234Z,99.99
2018-12-04T09:06:51.559Z,99.99
2018-12-04T09:07:52.078Z,99.99
2018-12-04T09:08:53.506Z,99.99
2018-12-04T09:09:53.756Z,99.99
2018-12-04T09:10:54.441Z,99.99
2018-12-04T09:11:55.852Z,99.99
2018-12-04T09:12:56.311Z,99.99
2018-12-04T09:13:57.728Z,99.99
2018-12-04T09:14:58.418Z,99.99
2018-12-04T09:15:59.438Z,99.99
2018-12-04T09:17:00.263Z,99.99
2018-12-04T09:18:00.951Z,99.99
2018-12-04T09:19:02.373Z,99.99
2018-12-04T09:20:03.101Z,99.99
2018-12-04T09:21:03.488Z,99.99
2018-12-04T09:22:04.074Z,99.99
2018-12-04T09:23:04.713Z,99.99
2018-12-04T09:24:05.439Z,99.99
2018-12-04T09:25:06.363Z,99.99
2018-12-04T09:26:07.449Z,99.99
2018-12-04T09:27:09.285Z,99.99
2018-12-04T09:28:10.569Z,99.99
2018-12-04T09:29:10.621Z,99.99
2018-12-04T09:30:11.145Z,99.99
2018-12-04T09:31:12.018Z,99.99
2018-12-04T09:32:12.985Z,99.99
2018-12-04T09:33:13.116Z,99.99
2018-12-04T09:34:14.363Z,99.99
2018-12-04T09:35:14.789Z,99.99
2018-12-04T09:36:15.207Z,99.99
2018-12-04T09:37:16.324Z,99.99
2018-12-04T09:38:16.574Z,99.99
2018-12-04T09:39:20.446Z,99.99
2018-12-04T09:39:31.377Z,99.99
2018-12-04T09:39:44.127Z,99.99
2018-12-04T09:39:54.173Z,99.99
2018-12-04T09:40:54.939Z,99.99
2018-12-04T09:41:56.361Z,99.99
2018-12-04T09:42:56.772Z,99.99
2018-12-04T09:43:09.107Z,99.99
2018-12-04T09:44:10.223Z,99.99
2018-12-04T09:45:10.923Z,99.99
2018-12-04T09:46:11.335Z,99.99
2018-12-04T09:47:12.029Z,99.99
2018-12-04T09:48:12.448Z,99.99
2018-12-04T09:49:14.387Z,99.99
2018-12-04T09:50:14.359Z,99.99
2018-12-04T09:51:14.776Z,99.99
2018-12-04T09:52:15.187Z,99.99
2018-12-04T09:53:16.345Z,99.99
2018-12-04T09:54:16.797Z,99.99
2018-12-04T09:55:17.251Z,99.99
2018-12-04T09:56:17.662Z,99.99
2018-12-04T09:57:19.069Z,99.99
2018-12-04T09:58:19.412Z,99.99
2018-12-04T09:59:20.152Z,99.99
2018-12-04T10:00:21.289Z,99.99
2018-12-04T10:01:22.424Z,99.99
2018-12-04T10:02:23.755Z,99.99
2018-12-04T10:03:24.634Z,99.99
2018-12-04T10:04:25.987Z,99.99
2018-12-04T10:05:28.023Z,99.99
2018-12-04T10:06:31.177Z,99.99
2018-12-04T10:06:40.992Z,99.99
2018-12-04T10:07:42.115Z,99.99
2018-12-04T10:08:42.565Z,99.99
2018-12-04T10:09:43.252Z,99.99
2018-12-04T10:10:43.711Z,99.99
2018-12-04T10:11:44.121Z,99.99
2018-12-04T10:12:45.659Z,99.99
2018-12-04T10:13:45.715Z,99.99
2018-12-04T10:14:46.401Z,99.99
2018-12-04T10:15:47.097Z,99.99
2018-12-04T10:16:48.229Z,99.99
2018-12-04T10:17:49.345Z,99.99
2018-12-04T10:18:50.307Z,99.99
2018-12-04T10:19:50.723Z,99.99
2018-12-04T10:20:51.407Z,99.99
2018-12-04T10:21:52.537Z,99.99
2018-12-04T10:22:53.672Z,99.99
2018-12-04T10:23:54.918Z,99.99
2018-12-04T10:24:55.333Z,99.99
2018-12-04T10:25:56.302Z,99.99
2018-12-04T10:26:56.721Z,99.99
2018-12-04T10:27:58.125Z,99.99
2018-12-04T10:28:59.096Z,99.99
2018-12-04T10:30:01.096Z,99.99
2018-12-04T10:31:00.338Z,99.99
2018-12-04T10:32:01.029Z,99.99
2018-12-04T10:33:01.727Z,99.99
2018-12-04T10:34:05.429Z,99.99
2018-12-04T10:34:16.692Z,99.99
2018-12-04T10:34:29.047Z,99.99
2018-12-04T10:34:41.392Z,99.99
2018-12-04T10:34:53.375Z,99.99
2018-12-04T10:35:03.242Z,99.99
2018-12-04T10:36:06.140Z,99.99
2018-12-04T10:36:17.384Z,99.99
2018-12-04T10:36:29.031Z,99.99
2018-12-04T10:37:26.592Z,99.99
2018-12-04T10:38:27.908Z,99.99
2018-12-04T10:39:28.598Z,99.99
2018-12-04T10:40:29.735Z,99.99
2018-12-04T10:41:30.148Z,99.99
2018-12-04T10:42:30.843Z,99.99
2018-12-04T10:43:30.867Z,99.99
2018-12-04T10:44:31.829Z,99.99
2018-12-04T10:45:34.598Z,99.99
2018-12-04T10:46:33.906Z,99.99
2018-12-04T10:47:34.773Z,99.99
2018-12-04T10:48:35.183Z,99.99
2018-12-04T10:49:35.594Z,99.99
2018-12-04T10:50:36.752Z,99.99
2018-12-04T10:51:42.205Z,99.99
2018-12-04T10:51:49.546Z,99.99
2018-12-04T10:52:50.218Z,99.99
2018-12-04T10:53:51.907Z,99.99
2018-12-04T10:54:52.737Z,99.99
2018-12-04T10:55:53.063Z,99.99
2018-12-04T10:56:53.474Z,99.99
2018-12-04T10:57:54.605Z,99.99
2018-12-04T10:58:55.574Z,99.99
2018-12-04T10:59:55.983Z,99.99
2018-12-04T11:00:56.716Z,99.99
2018-12-04T11:01:58.802Z,99.99
2018-12-04T11:02:58.944Z,99.99
2018-12-04T11:03:59.632Z,99.99
2018-12-04T11:04:59.874Z,99.99
2018-12-04T11:06:03.626Z,99.99
2018-12-04T11:06:12.706Z,99.99
2018-12-04T11:07:13.625Z,99.99
2018-12-04T11:08:14.316Z,99.99
2018-12-04T11:09:14.489Z,99.99
2018-12-04T11:10:14.899Z,99.99
2018-12-04T11:11:15.311Z,99.99
2018-12-04T11:12:15.860Z,99.99
2018-12-04T11:13:16.665Z,99.99
2018-12-04T11:14:16.793Z,99.99
2018-12-04T11:15:17.547Z,99.99
2018-12-04T11:16:17.849Z,99.99
2018-12-04T11:17:19.360Z,99.99
2018-12-04T11:18:20.324Z,99.99
2018-12-04T11:19:21.182Z,99.99
2018-12-04T11:20:22.954Z,99.99
2018-12-04T11:21:23.933Z,99.99
2018-12-04T11:22:24.072Z,99.99
2018-12-04T11:23:24.659Z,99.99
2018-12-04T11:24:26.470Z,99.99
2018-12-04T11:25:25.648Z,99.99
2018-12-04T11:26:26.479Z,99.99
2018-12-04T11:27:26.746Z,99.99
2018-12-04T11:28:31.179Z,99.99
2018-12-04T11:28:41.648Z,99.99
2018-12-04T11:29:40.283Z,99.99
2018-12-04T11:30:40.411Z,99.99
2018-12-04T11:31:41.371Z,99.99
2018-12-04T11:32:42.336Z,99.99
2018-12-04T11:33:42.754Z,99.99
2018-12-04T11:34:43.890Z,99.99
2018-12-04T11:35:47.051Z,99.99
2018-12-04T11:36:50.507Z,99.99
2018-12-04T11:37:01.304Z,99.99
2018-12-04T11:38:00.061Z,99.99
2018-12-04T11:39:03.866Z,99.99
2018-12-04T11:40:02.549Z,99.99
2018-12-04T11:41:02.794Z,99.99
2018-12-04T11:42:06.816Z,99.99
2018-12-04T11:42:17.717Z,99.99
2018-12-04T11:43:19.623Z,99.99
2018-12-04T11:43:31.670Z,99.99
2018-12-04T11:43:44.783Z,99.99
2018-12-04T11:43:53.866Z,99.99
2018-12-04T11:44:57.546Z,99.99
2018-12-04T11:45:07.813Z,99.99
2018-12-04T11:46:08.113Z,99.99
2018-12-04T11:47:10.734Z,99.99
2018-12-04T11:48:10.667Z,99.99
2018-12-04T11:49:12.226Z,99.99
2018-12-04T11:50:12.909Z,99.99
2018-12-04T11:51:13.323Z,99.99
2018-12-04T11:52:14.742Z,99.99
2018-12-04T11:53:15.149Z,99.99
2018-12-04T11:54:18.507Z,99.99
2018-12-04T11:54:29.951Z,99.99
2018-12-04T11:54:41.881Z,99.99
2018-12-04T11:55:42.495Z,99.99
2018-12-04T11:56:45.212Z,99.99
2018-12-04T11:57:44.639Z,99.99
2018-12-04T11:58:45.325Z,99.99
2018-12-04T11:59:46.013Z,99.99
2018-12-04T12:00:46.979Z,99.99
2018-12-04T12:01:47.773Z,99.99
2018-12-04T12:02:48.099Z,99.99
2018-12-04T12:03:48.511Z,99.99
2018-12-04T12:04:48.921Z,99.99
2018-12-04T12:05:52.195Z,99.99
2018-12-04T12:06:04.422Z,99.99
2018-12-04T12:07:02.871Z,99.99
2018-12-04T12:08:03.280Z,99.99
2018-12-04T12:09:03.973Z,99.99
2018-12-04T12:10:04.660Z,99.99
2018-12-04T12:11:05.349Z,99.99
2018-12-04T12:12:06.037Z,99.99
2018-12-04T12:13:06.448Z,99.99
2018-12-04T12:14:07.575Z,99.99
2018-12-04T12:15:08.036Z,99.99
2018-12-04T12:16:08.724Z,99.99
2018-12-04T12:17:09.842Z,99.99
2018-12-04T12:18:13.547Z,99.99
2018-12-04T12:18:24.681Z,99.99
2018-12-04T12:19:23.207Z,99.99
2018-12-04T12:20:23.657Z,99.99
2018-12-04T12:21:25.634Z,99.99
2018-12-04T12:22:25.884Z,99.99
2018-12-04T12:23:26.508Z,99.99
2018-12-04T12:24:27.922Z,99.99
2018-12-04T12:25:28.609Z,99.99
2018-12-04T12:26:29.575Z,99.99
2018-12-04T12:27:30.704Z,99.99
2018-12-04T12:28:31.127Z,99.99
2018-12-04T12:29:31.512Z,99.99
2018-12-04T12:30:32.479Z,99.99
2018-12-04T12:31:33.443Z,99.99